Herron Island, Washington
Current Conditions -  °F | °C
As of 2:53 PM on Wednesday 26 Nov 2014 (Local Time) from KTIW Reporting Station
Overcast Overcast  
Wind Chill: 56°   Ceiling: 3500
Heat Index: 56°   Visibility: 10mi
Dew Point: 53°   Wind: 5mph
Humidity: 90%   Direction: 240°WSW
Pressure: 30.04"   Gusts: NA
Location:  47.264°N, 122.772°W
Report Text: KTIW 262253Z 24004KT 10SM OVC035 13/12 A3004 RMK AO2 SLP174 T01330117
Loading
Personal Weather Stations






























Interactive Weather Map New forecast layout! Learn more

10-Day Weather Forecast

Advertisements
Track Severe Weather on mobile